Time;durP1;ratioP1;P1;durP2;ratioP2;P2;SDS_P1;SDS_P2;PMS_P1;PMS_P2;Temp;Humidity;BMP_temperature;BMP_pressure;BME280_temperature;BME280_humidity;BME280_pressure;Samples;Min_cycle;Max_cycle;Signal;HPM_P1;HPM_P2
2022/08/23 00:00:58;;;;;;;5.45;1.40;;;20.50;57.70;;;;;;5034314;28;20056;-83
2022/08/23 00:03:23;;;;;;;4.88;1.20;;;20.50;58.20;;;;;;5028848;28;20030;-83
2022/08/23 00:05:49;;;;;;;4.93;1.40;;;20.50;58.10;;;;;;5032831;28;20025;-83
2022/08/23 00:08:14;;;;;;;6.50;1.40;;;20.40;58.20;;;;;;5036158;28;20030;-83
2022/08/23 00:10:40;;;;;;;11.70;1.88;;;20.40;58.30;;;;;;5035165;28;20064;-83
2022/08/23 00:13:05;;;;;;;5.45;1.50;;;20.40;58.40;;;;;;5029607;28;20043;-82
2022/08/23 00:15:32;;;;;;;3.13;1.45;;;20.40;58.60;;;;;;5032675;28;20025;-83
2022/08/23 00:17:59;;;;;;;3.85;1.42;;;20.40;58.50;;;;;;5032679;28;20026;-83
2022/08/23 00:20:25;;;;;;;6.00;1.58;;;20.40;58.70;;;;;;5031694;28;20384;-83
2022/08/23 00:22:50;;;;;;;2.35;1.00;;;20.30;59.00;;;;;;5029103;28;20033;-83
2022/08/23 00:25:17;;;;;;;3.70;1.55;;;20.30;59.70;;;;;;5031664;28;20027;-84
2022/08/23 00:27:42;;;;;;;5.50;1.80;;;20.20;60.00;;;;;;5032121;28;20025;-83
2022/08/23 00:30:11;;;;;;;1.50;1.15;;;20.30;59.90;;;;;;5034714;28;20127;-84
2022/08/23 00:32:38;;;;;;;5.20;1.77;;;20.20;59.60;;;;;;5032606;28;20087;-83
2022/08/23 00:35:07;;;;;;;6.95;1.50;;;20.20;59.90;;;;;;5034505;28;20033;-83
2022/08/23 00:37:32;;;;;;;3.72;1.38;;;20.20;59.90;;;;;;5036740;28;20029;-83
2022/08/23 00:39:59;;;;;;;3.08;1.48;;;20.10;60.10;;;;;;5037372;28;20024;-84
2022/08/23 00:48:36;;;;;;;3.47;1.60;;;20.10;60.30;;;;;;5028262;28;20049;-84
2022/08/23 00:51:15;;;;;;;7.47;1.80;;;20.10;60.40;;;;;;5031621;28;20030;-84
2022/08/23 00:53:48;;;;;;;3.75;1.63;;;20.10;60.50;;;;;;5035032;28;20030;-83
2022/08/23 00:56:16;;;;;;;3.13;1.23;;;20.00;60.80;;;;;;5035468;28;20361;-83
2022/08/23 00:58:42;;;;;;;5.05;1.40;;;20.00;61.10;;;;;;5035700;28;20032;-84
2022/08/23 01:01:07;;;;;;;2.38;1.20;;;20.00;61.00;;;;;;5032730;28;20500;-83
2022/08/23 01:03:37;;;;;;;5.03;2.05;;;20.00;61.10;;;;;;5033493;28;20037;-83
2022/08/23 01:06:10;;;;;;;2.45;1.40;;;20.00;60.90;;;;;;5034197;28;20029;-83
2022/08/23 01:08:37;;;;;;;4.65;1.67;;;20.00;60.90;;;;;;5035189;28;20024;-83
2022/08/23 01:11:08;;;;;;;5.13;1.75;;;20.00;61.00;;;;;;5037287;28;20045;-83
2022/08/23 01:13:54;;;;;;;5.57;1.80;;;20.00;61.40;;;;;;5036983;28;20488;-83
2022/08/23 01:16:32;;;;;;;3.15;1.75;;;20.00;61.60;;;;;;5031882;28;20037;-83
2022/08/23 01:19:00;;;;;;;6.90;1.50;;;20.00;61.50;;;;;;5029838;28;20032;-84
2022/08/23 01:21:35;;;;;;;5.20;1.52;;;20.00;61.30;;;;;;5032014;28;20475;-83
2022/08/23 01:24:02;;;;;;;2.60;1.40;;;19.90;61.70;;;;;;5035218;28;20025;-83
2022/08/23 01:26:33;;;;;;;2.88;1.60;;;19.90;61.60;;;;;;5034488;28;20022;-84
2022/08/23 01:29:00;;;;;;;3.88;1.58;;;19.90;61.80;;;;;;5035004;28;20026;-83
2022/08/23 01:31:27;;;;;;;5.35;1.70;;;19.90;61.70;;;;;;5026754;28;20026;-83
2022/08/23 01:34:05;;;;;;;5.25;1.55;;;19.90;62.00;;;;;;5028026;28;20025;-83
2022/08/23 01:36:31;;;;;;;4.00;1.42;;;19.80;62.30;;;;;;5026752;28;20112;-83
2022/08/23 01:38:57;;;;;;;3.13;1.50;;;19.80;62.10;;;;;;5032203;28;20040;-84
2022/08/23 01:41:23;;;;;;;6.07;1.60;;;19.80;62.10;;;;;;5033372;28;20104;-83
2022/08/23 01:43:49;;;;;;;4.10;1.42;;;19.80;62.30;;;;;;5035498;28;20029;-83
2022/08/23 01:46:21;;;;;;;3.53;1.52;;;19.80;62.20;;;;;;5033546;28;20046;-83
2022/08/23 01:48:48;;;;;;;2.47;1.50;;;19.80;62.20;;;;;;5029932;28;20030;-83
2022/08/23 01:51:16;;;;;;;6.40;1.60;;;19.80;62.20;;;;;;5017972;28;20022;-84
2022/08/23 01:53:42;;;;;;;3.88;1.50;;;19.70;62.30;;;;;;5039409;28;20052;-83
2022/08/23 01:56:08;;;;;;;4.30;1.50;;;19.70;62.60;;;;;;5034253;28;20060;-84
2022/08/23 01:58:34;;;;;;;3.92;1.60;;;19.70;62.60;;;;;;5029784;28;20596;-83
2022/08/23 02:01:00;;;;;;;4.90;1.63;;;19.70;62.90;;;;;;5035773;28;20033;-83
2022/08/23 02:03:27;;;;;;;4.40;1.60;;;19.60;62.90;;;;;;5035393;28;20034;-83
2022/08/23 02:05:52;;;;;;;4.25;1.40;;;19.50;63.30;;;;;;5027390;28;20025;-84
2022/08/23 02:11:21;;;;;;;4.63;1.55;;;19.50;63.30;;;;;;5035040;28;20511;-83
2022/08/23 02:13:48;;;;;;;6.50;1.98;;;19.50;63.70;;;;;;5034582;28;20278;-84
2022/08/23 02:16:25;;;;;;;4.45;1.73;;;19.40;63.80;;;;;;5029766;28;20029;-84
2022/08/23 02:18:52;;;;;;;5.05;1.70;;;19.40;63.80;;;;;;5024731;28;20488;-83
2022/08/23 02:21:18;;;;;;;4.65;1.63;;;19.40;64.00;;;;;;5033077;28;20061;-84
2022/08/23 02:23:44;;;;;;;5.53;1.80;;;19.30;64.30;;;;;;5023210;28;20037;-83
2022/08/23 02:26:09;;;;;;;3.67;1.48;;;19.20;64.60;;;;;;5032701;28;20103;-83
2022/08/23 02:28:35;;;;;;;5.40;1.33;;;19.20;64.60;;;;;;5032072;28;20026;-83
2022/08/23 02:31:00;;;;;;;3.08;1.48;;;19.10;65.00;;;;;;5034945;28;20025;-83
2022/08/23 02:33:27;;;;;;;5.10;1.75;;;19.10;65.40;;;;;;5031438;28;20021;-84
2022/08/23 02:35:53;;;;;;;2.33;1.40;;;19.10;65.20;;;;;;5035325;28;20021;-83
2022/08/23 02:38:18;;;;;;;3.47;1.45;;;19.00;65.70;;;;;;5033519;28;20025;-83
2022/08/23 02:40:44;;;;;;;4.25;1.60;;;19.00;65.70;;;;;;5033786;28;20192;-84
2022/08/23 02:43:10;;;;;;;4.88;1.90;;;19.00;65.80;;;;;;5038201;28;20033;-83
2022/08/23 02:45:37;;;;;;;5.25;1.63;;;19.00;66.00;;;;;;5043310;28;20128;-83
2022/08/23 02:48:03;;;;;;;2.78;1.60;;;18.90;66.30;;;;;;5032146;28;20049;-83
2022/08/23 02:50:29;;;;;;;3.83;1.90;;;18.90;65.90;;;;;;5032154;28;20033;-84
2022/08/23 02:52:57;;;;;;;6.05;1.70;;;18.80;66.10;;;;;;5025593;28;20055;-83
2022/08/23 02:55:22;;;;;;;4.45;1.75;;;18.80;66.40;;;;;;5031903;28;20021;-83
2022/08/23 02:57:48;;;;;;;6.45;1.90;;;18.70;66.80;;;;;;5032028;28;20025;-83
2022/08/23 03:00:15;;;;;;;4.75;1.80;;;18.70;67.00;;;;;;5033689;28;20128;-83
2022/08/23 03:02:41;;;;;;;3.97;1.65;;;18.60;67.20;;;;;;5035343;28;20087;-84
2022/08/23 03:05:07;;;;;;;5.07;1.88;;;18.60;67.20;;;;;;5028039;28;20033;-84
2022/08/23 03:07:33;;;;;;;3.63;1.90;;;18.50;67.40;;;;;;5033659;28;20025;-83
2022/08/23 03:09:58;;;;;;;7.50;1.67;;;18.50;67.60;;;;;;5034595;28;20034;-84
2022/08/23 03:12:25;;;;;;;4.78;2.00;;;18.50;67.70;;;;;;5033108;28;20434;-83
2022/08/23 03:14:51;;;;;;;2.78;1.52;;;18.40;67.90;;;;;;5033602;28;20029;-83
2022/08/23 03:17:18;;;;;;;2.63;1.63;;;18.40;68.00;;;;;;5029371;28;20067;-83
2022/08/23 03:19:44;;;;;;;6.07;1.60;;;18.30;68.30;;;;;;5050787;28;20040;-83
2022/08/23 03:22:09;;;;;;;9.82;1.83;;;18.20;68.60;;;;;;5038681;28;20038;-83
2022/08/23 03:24:36;;;;;;;4.93;1.60;;;18.20;68.90;;;;;;5037161;28;20148;-84
2022/08/23 03:27:03;;;;;;;4.78;2.10;;;18.10;69.00;;;;;;5036329;28;20025;-83
2022/08/23 03:29:28;;;;;;;5.82;1.83;;;18.00;69.30;;;;;;5040171;28;20029;-83
2022/08/23 03:31:54;;;;;;;5.20;1.70;;;18.00;69.40;;;;;;5041100;28;20039;-84
2022/08/23 03:34:19;;;;;;;5.00;2.10;;;18.00;69.90;;;;;;5039188;28;20443;-83
2022/08/23 03:36:45;;;;;;;4.45;1.73;;;17.90;70.00;;;;;;5037167;28;20029;-83
2022/08/23 03:39:11;;;;;;;6.50;1.90;;;17.90;70.30;;;;;;5028686;28;20144;-83
2022/08/23 03:41:36;;;;;;;3.80;1.90;;;17.80;70.50;;;;;;5035206;28;20030;-83
2022/08/23 03:44:03;;;;;;;4.28;1.92;;;17.70;70.70;;;;;;5038180;28;20528;-83
2022/08/23 03:46:28;;;;;;;6.82;2.30;;;17.70;71.00;;;;;;5040167;28;20041;-83
2022/08/23 03:48:58;;;;;;;6.60;2.33;;;17.60;71.40;;;;;;5037860;28;20100;-83
2022/08/23 03:51:26;;;;;;;3.17;1.67;;;17.50;71.40;;;;;;5038366;28;20036;-83
2022/08/23 03:53:52;;;;;;;7.75;2.25;;;17.50;72.00;;;;;;5043778;28;20033;-84
2022/08/23 03:56:28;;;;;;;4.57;1.90;;;17.50;71.90;;;;;;5036397;28;20091;-83
2022/08/23 03:58:55;;;;;;;4.97;2.08;;;17.50;72.10;;;;;;5036123;28;20481;-83
2022/08/23 04:01:21;;;;;;;3.70;2.08;;;17.30;72.10;;;;;;5037254;28;20029;-83
2022/08/23 04:03:47;;;;;;;3.08;1.67;;;17.30;72.80;;;;;;5039736;28;20034;-83
2022/08/23 04:06:13;;;;;;;4.07;2.03;;;17.10;72.60;;;;;;5037698;28;20056;-83
2022/08/23 04:08:39;;;;;;;5.57;2.03;;;17.10;73.20;;;;;;5026744;28;20026;-82
2022/08/23 04:11:04;;;;;;;3.35;1.75;;;17.00;73.60;;;;;;5036989;28;20021;-82
2022/08/23 04:13:30;;;;;;;5.80;2.00;;;16.90;73.80;;;;;;5032405;28;20071;-82
2022/08/23 04:15:56;;;;;;;5.55;2.17;;;16.90;74.00;;;;;;5031443;28;20038;-82
2022/08/23 04:18:22;;;;;;;6.50;2.08;;;16.80;74.30;;;;;;5030456;28;20389;-81
2022/08/23 04:20:49;;;;;;;4.22;2.20;;;16.80;74.50;;;;;;5032703;28;20033;-80
2022/08/23 04:23:14;;;;;;;5.50;2.08;;;16.80;74.70;;;;;;5031987;28;20064;-80
2022/08/23 04:25:42;;;;;;;6.97;2.53;;;16.70;75.00;;;;;;5033522;28;20036;-81
2022/08/23 04:28:08;;;;;;;4.15;2.00;;;16.70;75.00;;;;;;5035376;28;20026;-81
2022/08/23 04:30:33;;;;;;;6.45;2.35;;;16.70;75.00;;;;;;5035425;28;20543;-81
2022/08/23 04:32:59;;;;;;;6.47;2.20;;;16.70;75.30;;;;;;5032723;28;20094;-80
2022/08/23 04:35:25;;;;;;;3.58;2.00;;;16.60;75.50;;;;;;5032731;28;20093;-81
2022/08/23 04:37:51;;;;;;;7.18;2.70;;;16.60;75.60;;;;;;5031046;28;20416;-82
2022/08/23 04:43:01;;;;;;;6.78;2.25;;;16.60;75.50;;;;;;5033482;28;20084;-80
2022/08/23 04:45:27;;;;;;;5.47;2.30;;;16.50;75.40;;;;;;5029204;28;20548;-81
2022/08/23 04:47:53;;;;;;;6.20;1.90;;;16.50;75.90;;;;;;5032643;28;20029;-81
2022/08/23 04:50:20;;;;;;;3.42;2.05;;;16.50;75.80;;;;;;5029732;28;20428;-81
2022/08/23 04:52:46;;;;;;;4.78;2.13;;;16.50;76.20;;;;;;5029892;28;20040;-81
2022/08/23 04:55:12;;;;;;;5.90;2.22;;;16.50;76.30;;;;;;5033294;28;20025;-81
2022/08/23 04:57:37;;;;;;;4.55;2.20;;;16.50;76.00;;;;;;5019153;28;20461;-81
2022/08/23 05:00:05;;;;;;;5.03;2.33;;;16.60;75.80;;;;;;5025000;28;20037;-81
2022/08/23 05:02:30;;;;;;;7.32;2.10;;;16.60;75.70;;;;;;5030060;28;20037;-81
2022/08/23 05:04:56;;;;;;;4.40;2.08;;;16.60;75.70;;;;;;5034126;28;20037;-81
2022/08/23 05:07:21;;;;;;;7.15;2.30;;;16.70;75.90;;;;;;5032962;28;20420;-81
2022/08/23 05:09:47;;;;;;;3.60;2.03;;;16.60;76.30;;;;;;5030260;28;20021;-81
2022/08/23 05:12:12;;;;;;;5.28;2.78;;;16.60;76.30;;;;;;5025969;28;20063;-81
2022/08/23 05:14:38;;;;;;;10.25;2.30;;;16.70;76.50;;;;;;5030488;28;20113;-81
2022/08/23 05:17:04;;;;;;;7.78;2.50;;;16.80;76.00;;;;;;5032089;28;20053;-81
2022/08/23 05:19:29;;;;;;;6.78;2.42;;;16.70;76.40;;;;;;5023326;28;20037;-81
2022/08/23 05:21:55;;;;;;;5.18;2.60;;;16.80;76.00;;;;;;5027302;28;20108;-81
2022/08/23 05:24:22;;;;;;;6.82;2.33;;;16.90;76.00;;;;;;5029435;28;20111;-81
2022/08/23 05:26:47;;;;;;;9.27;2.58;;;17.00;75.50;;;;;;5030890;28;20100;-80
2022/08/23 05:29:14;;;;;;;4.75;2.25;;;17.00;75.00;;;;;;5032206;28;20116;-80
2022/08/23 05:31:39;;;;;;;6.40;2.38;;;17.10;75.10;;;;;;5027154;28;20084;-80
2022/08/23 05:34:05;;;;;;;5.75;2.40;;;17.20;75.20;;;;;;5035998;28;20033;-80
2022/08/23 05:36:31;;;;;;;5.70;2.25;;;17.30;74.70;;;;;;5027893;28;20079;-80
2022/08/23 05:38:56;;;;;;;5.65;2.50;;;17.40;74.70;;;;;;5027359;28;20041;-80
2022/08/23 05:41:22;;;;;;;5.38;2.78;;;17.40;75.00;;;;;;5027088;28;20029;-81
2022/08/23 05:43:47;;;;;;;6.57;2.50;;;17.50;74.80;;;;;;5023317;28;20469;-80
2022/08/23 05:46:17;;;;;;;5.30;2.35;;;17.60;74.10;;;;;;5022588;28;20580;-80
2022/08/23 05:48:46;;;;;;;10.15;2.63;;;17.60;74.30;;;;;;5015662;28;20029;-80
2022/08/23 05:51:13;;;;;;;5.90;2.60;;;17.70;74.10;;;;;;5023043;28;20021;-80
2022/08/23 05:53:40;;;;;;;4.80;2.58;;;17.80;74.00;;;;;;5031861;28;20025;-80
2022/08/23 05:56:19;;;;;;;5.38;2.75;;;17.80;74.00;;;;;;5031729;28;20036;-80
2022/08/23 05:58:45;;;;;;;4.53;2.58;;;17.90;73.40;;;;;;5032845;28;20037;-80
2022/08/23 06:01:12;;;;;;;3.75;2.38;;;17.90;73.30;;;;;;5031341;28;20037;-80
2022/08/23 06:03:38;;;;;;;4.43;2.20;;;17.80;73.70;;;;;;5028535;28;20029;-80
2022/08/23 06:06:05;;;;;;;5.25;2.75;;;17.80;73.90;;;;;;5033387;28;20025;-80
2022/08/23 06:08:31;;;;;;;4.35;2.60;;;17.80;74.70;;;;;;5032238;28;20026;-80
2022/08/23 06:11:09;;;;;;;4.65;2.33;;;17.80;74.60;;;;;;5025859;28;20468;-81
2022/08/23 06:13:43;;;;;;;3.50;2.35;;;17.80;74.40;;;;;;5029849;28;20068;-81
2022/08/23 06:16:10;;;;;;;3.78;2.38;;;17.80;74.70;;;;;;5030328;28;20033;-81
2022/08/23 06:18:35;;;;;;;4.45;2.70;;;17.80;75.00;;;;;;5024851;28;20474;-80
2022/08/23 06:21:04;;;;;;;5.72;2.50;;;17.90;74.50;;;;;;5026191;28;20033;-81
2022/08/23 06:23:31;;;;;;;6.85;2.50;;;18.00;74.40;;;;;;5026745;28;20026;-81
2022/08/23 06:25:56;;;;;;;6.75;3.00;;;18.10;74.10;;;;;;5026046;28;20113;-80
2022/08/23 06:28:22;;;;;;;5.95;2.40;;;18.30;74.20;;;;;;5023207;28;20120;-80
2022/08/23 06:30:48;;;;;;;6.97;2.40;;;18.50;73.70;;;;;;5030695;28;20036;-80
2022/08/23 06:33:13;;;;;;;7.53;2.95;;;18.70;72.90;;;;;;5032158;28;20037;-80
2022/08/23 06:35:40;;;;;;;8.10;2.78;;;18.90;72.80;;;;;;5024202;28;20041;-80
2022/08/23 06:38:06;;;;;;;6.07;2.45;;;19.10;71.20;;;;;;5026436;28;20036;-80
2022/08/23 06:40:34;;;;;;;7.07;2.65;;;19.30;71.90;;;;;;5023975;28;20079;-80
2022/08/23 06:43:00;;;;;;;5.80;2.42;;;19.40;70.90;;;;;;5031114;28;20029;-81
2022/08/23 06:45:25;;;;;;;4.90;2.42;;;19.60;69.70;;;;;;5026730;28;20400;-81
2022/08/23 06:47:51;;;;;;;4.65;2.47;;;19.80;69.20;;;;;;5026670;28;20049;-81
2022/08/23 06:50:18;;;;;;;4.82;2.30;;;19.90;68.40;;;;;;5027755;28;20044;-81
2022/08/23 06:52:49;;;;;;;7.70;2.80;;;19.90;68.40;;;;;;5028037;28;20075;-80
2022/08/23 06:55:15;;;;;;;6.70;2.72;;;20.00;68.60;;;;;;5026308;28;20034;-81
2022/08/23 06:57:40;;;;;;;5.35;2.45;;;20.10;67.30;;;;;;5027546;28;20476;-81
2022/08/23 07:00:07;;;;;;;6.10;2.35;;;20.20;67.80;;;;;;5028857;28;20036;-81
2022/08/23 07:02:33;;;;;;;6.85;1.88;;;20.20;66.80;;;;;;5032443;28;20032;-81
2022/08/23 07:04:59;;;;;;;3.42;1.70;;;20.20;66.40;;;;;;5027108;28;20018;-81
2022/08/23 07:07:25;;;;;;;5.97;1.90;;;20.10;66.50;;;;;;5027661;28;20369;-81
2022/08/23 07:09:51;;;;;;;3.67;1.80;;;20.30;64.70;;;;;;5024481;28;20029;-81
2022/08/23 07:12:19;;;;;;;3.38;1.63;;;20.40;64.90;;;;;;5028223;28;20056;-81
2022/08/23 07:14:44;;;;;;;6.50;2.20;;;20.60;64.30;;;;;;5026694;28;20021;-81
2022/08/23 07:17:13;;;;;;;4.82;2.05;;;20.70;63.90;;;;;;5032211;28;20029;-81
2022/08/23 07:19:40;;;;;;;5.78;1.90;;;20.80;63.50;;;;;;5026403;28;20033;-81
2022/08/23 07:22:06;;;;;;;3.55;1.80;;;21.00;62.80;;;;;;5028144;28;20036;-81
2022/08/23 07:24:32;;;;;;;4.88;2.47;;;20.90;62.40;;;;;;5042064;28;20032;-81
2022/08/23 07:26:59;;;;;;;6.70;1.70;;;20.80;63.20;;;;;;5036064;28;20026;-81
2022/08/23 07:29:25;;;;;;;4.53;1.83;;;20.80;63.30;;;;;;5032900;28;20400;-81
2022/08/23 07:31:54;;;;;;;5.82;1.92;;;21.00;62.60;;;;;;5035384;28;20075;-81
2022/08/23 07:34:20;;;;;;;4.93;2.20;;;21.20;62.70;;;;;;5031836;28;20065;-82
2022/08/23 07:36:47;;;;;;;8.25;2.00;;;21.30;62.60;;;;;;5034291;28;20056;-81
2022/08/23 07:39:16;;;;;;;3.92;2.10;;;21.50;60.90;;;;;;5036227;28;20451;-81
2022/08/23 07:41:43;;;;;;;4.53;2.03;;;21.60;60.80;;;;;;5034096;28;20116;-81
2022/08/23 07:44:10;;;;;;;3.15;1.63;;;21.70;60.30;;;;;;5035015;28;20093;-81
2022/08/23 07:46:39;;;;;;;5.35;2.08;;;21.80;60.30;;;;;;5027695;28;20377;-81
2022/08/23 07:49:06;;;;;;;4.90;1.73;;;22.00;60.20;;;;;;5029490;28;20026;-82
2022/08/23 07:51:33;;;;;;;4.90;1.83;;;22.00;58.80;;;;;;5026338;28;20496;-81
2022/08/23 07:54:04;;;;;;;2.95;1.63;;;22.20;59.00;;;;;;5032683;28;20037;-81
2022/08/23 07:56:30;;;;;;;;;;;22.30;58.20;;;;;;5031833;28;20034;-81
2022/08/23 07:58:55;;;;;;;4.25;1.50;;;22.50;58.30;;;;;;5023877;28;19915;-80
2022/08/23 08:01:24;;;;;;;3.63;1.23;;;22.70;58.40;;;;;;5041027;28;20358;-81
2022/08/23 08:03:53;;;;;;;5.55;1.58;;;22.90;56.80;;;;;;5033363;28;20029;-81
2022/08/23 08:06:27;;;;;;;6.07;1.50;;;23.10;55.50;;;;;;5039424;28;20496;-80
2022/08/23 08:08:52;;;;;;;4.28;1.35;;;23.20;54.90;;;;;;5024908;28;20113;-80
2022/08/23 08:11:23;;;;;;;2.53;1.10;;;23.30;54.40;;;;;;5021293;28;20108;-81
2022/08/23 08:13:49;;;;;;;2.53;1.17;;;23.40;53.80;;;;;;5024691;28;20033;-81
2022/08/23 08:16:45;;;;;;;2.95;1.00;;;23.50;53.60;;;;;;5031017;28;20056;-81
2022/08/23 08:19:15;;;;;;;2.17;0.98;;;23.70;52.30;;;;;;5027185;28;20045;-81
2022/08/23 08:21:44;;;;;;;2.28;0.93;;;23.70;51.60;;;;;;5025665;28;20026;-81
2022/08/23 08:24:12;;;;;;;4.25;1.30;;;23.90;51.90;;;;;;5027827;28;20082;-81
2022/08/23 08:26:38;;;;;;;2.80;1.15;;;24.00;52.20;;;;;;5027076;28;20021;-81
2022/08/23 08:29:06;;;;;;;3.92;1.38;;;24.10;51.30;;;;;;5029763;28;20021;-81
2022/08/23 08:31:37;;;;;;;4.60;1.38;;;24.20;50.50;;;;;;5027308;28;20084;-81
2022/08/23 08:34:02;;;;;;;2.88;1.10;;;24.20;51.20;;;;;;5024489;28;20025;-81
2022/08/23 08:36:34;;;;;;;3.00;1.17;;;24.50;51.40;;;;;;5022570;28;20060;-81
2022/08/23 08:39:00;;;;;;;2.95;1.25;;;24.60;50.60;;;;;;5024047;28;20036;-81
2022/08/23 08:41:58;;;;;;;4.80;1.30;;;24.60;50.30;;;;;;5028151;28;20033;-81
2022/08/23 08:44:57;;;;;;;5.20;1.27;;;24.70;51.00;;;;;;5026911;28;20515;-81
2022/08/23 08:47:49;;;;;;;6.25;1.48;;;24.80;49.30;;;;;;5029372;28;20042;-81
2022/08/23 08:50:43;;;;;;;2.92;1.20;;;25.00;48.90;;;;;;5026571;28;20064;-81
2022/08/23 08:53:15;;;;;;;3.83;1.38;;;25.10;48.40;;;;;;5028946;28;20025;-81
2022/08/23 08:55:46;;;;;;;4.18;1.10;;;25.10;48.00;;;;;;5022925;28;20060;-81
2022/08/23 08:58:20;;;;;;;3.08;1.00;;;25.30;47.90;;;;;;5026292;28;20068;-81
2022/08/23 09:00:45;;;;;;;1.85;1.00;;;25.40;47.60;;;;;;5023117;28;20049;-81
2022/08/23 09:03:20;;;;;;;4.13;1.20;;;25.20;48.80;;;;;;5027077;28;20021;-81
2022/08/23 09:05:55;;;;;;;2.65;1.13;;;25.70;49.20;;;;;;5028634;28;20030;-81
2022/08/23 09:08:51;;;;;;;2.63;1.13;;;25.60;48.40;;;;;;5027503;28;20093;-82
2022/08/23 09:11:39;;;;;;;4.22;1.45;;;25.60;46.50;;;;;;5027024;28;20029;-81
2022/08/23 09:14:18;;;;;;;3.42;1.42;;;25.60;47.50;;;;;;5022037;28;20040;-81
2022/08/23 09:17:01;;;;;;;3.25;1.38;;;25.70;47.20;;;;;;5040310;28;20022;-81
2022/08/23 09:19:29;;;;;;;3.22;1.48;;;26.10;47.70;;;;;;5024771;28;20041;-81
2022/08/23 09:22:04;;;;;;;2.10;0.95;;;26.00;47.40;;;;;;5025837;28;20033;-81
2022/08/23 09:24:30;;;;;;;5.05;1.70;;;26.00;48.50;;;;;;5019927;28;20040;-81
2022/08/23 09:26:56;;;;;;;4.43;1.35;;;26.10;48.40;;;;;;5026631;28;20029;-81
2022/08/23 09:29:33;;;;;;;2.13;1.30;;;26.20;47.50;;;;;;5019578;28;20071;-81
2022/08/23 09:32:24;;;;;;;3.25;1.40;;;26.40;47.20;;;;;;5025392;28;20123;-81
2022/08/23 09:34:50;;;;;;;2.75;1.30;;;26.70;47.30;;;;;;5022149;28;20035;-81
2022/08/23 09:37:21;;;;;;;3.67;1.50;;;26.60;46.70;;;;;;5020327;28;20022;-81
2022/08/23 09:40:11;;;;;;;2.30;1.20;;;26.60;46.10;;;;;;5037276;28;20618;-81
2022/08/23 09:42:38;;;;;;;2.55;1.60;;;26.60;45.50;;;;;;5024592;28;20026;-81
2022/08/23 09:45:22;;;;;;;3.10;1.40;;;26.60;45.40;;;;;;5024087;28;20709;-81
2022/08/23 09:47:48;;;;;;;3.30;1.50;;;26.90;46.00;;;;;;5026863;28;20439;-81
2022/08/23 09:50:25;;;;;;;4.47;1.60;;;27.20;44.50;;;;;;5019034;28;20055;-81
2022/08/23 09:53:02;;;;;;;3.97;1.67;;;26.70;46.00;;;;;;5019644;28;20036;-82
2022/08/23 09:55:50;;;;;;;5.57;1.77;;;26.80;44.80;;;;;;5020958;28;20033;-81
2022/08/23 09:58:36;;;;;;;6.68;1.52;;;26.90;45.40;;;;;;5021666;28;20037;-81
2022/08/23 10:01:17;;;;;;;3.85;1.40;;;27.10;46.70;;;;;;5020443;28;20041;-81
2022/08/23 10:04:02;;;;;;;4.22;1.55;;;26.90;45.90;;;;;;5018916;28;20025;-82
2022/08/23 10:06:32;;;;;;;3.40;1.38;;;27.30;45.40;;;;;;5022213;28;20037;-81
2022/08/23 10:09:03;;;;;;;4.05;1.55;;;26.90;45.70;;;;;;5020355;28;20032;-81
2022/08/23 10:11:33;;;;;;;4.32;1.27;;;27.30;44.80;;;;;;5021721;28;20774;-81
2022/08/23 10:13:59;;;;;;;6.70;1.33;;;28.00;44.10;;;;;;5018342;28;20041;-82
2022/08/23 10:17:06;;;;;;;3.13;1.42;;;28.00;42.60;;;;;;5026018;28;20448;-82
2022/08/23 10:20:02;;;;;;;3.65;1.50;;;28.00;42.00;;;;;;5017973;28;20099;-81
2022/08/23 10:22:40;;;;;;;5.57;1.55;;;27.20;44.30;;;;;;5019022;28;20052;-81
2022/08/23 10:25:56;;;;;;;3.90;1.60;;;27.50;44.40;;;;;;5019664;28;20033;-81
2022/08/23 10:31:47;;;;;;;2.38;1.23;;;27.90;43.90;;;;;;5024175;28;20036;-81
2022/08/23 10:34:50;;;;;;;3.20;1.10;;;27.90;43.80;;;;;;5019928;28;20033;-81
2022/08/23 10:37:40;;;;;;;4.47;1.23;;;28.50;42.70;;;;;;5022799;28;20135;-81
2022/08/23 10:40:27;;;;;;;1.67;1.00;;;28.30;40.90;;;;;;5020962;28;20026;-82
2022/08/23 10:43:06;;;;;;;4.60;1.38;;;28.70;41.00;;;;;;5019312;28;20045;-80
2022/08/23 10:45:34;;;;;;;2.17;1.25;;;28.70;41.50;;;;;;5017939;28;20151;-81
2022/08/23 10:48:00;;;;;;;2.42;0.95;;;29.20;40.90;;;;;;5022953;28;20061;-81
2022/08/23 10:50:30;;;;;;;1.73;0.80;;;29.30;40.80;;;;;;5020327;28;20065;-81
2022/08/23 10:53:04;;;;;;;1.85;0.77;;;28.60;39.00;;;;;;5023432;28;20033;-81
2022/08/23 10:58:26;;;;;;;2.45;0.93;;;29.10;39.70;;;;;;5017495;28;20129;-81
2022/08/23 11:00:53;;;;;;;3.20;0.93;;;29.20;40.20;;;;;;5020527;28;20033;-81
2022/08/23 11:03:27;;;;;;;2.58;1.00;;;29.30;39.00;;;;;;5019192;28;20037;-81
2022/08/23 11:06:26;;;;;;;4.43;1.20;;;29.90;37.20;;;;;;5016986;28;20083;-80
2022/08/23 11:09:08;;;;;;;2.33;0.83;;;30.20;37.80;;;;;;5022087;28;20037;-81
2022/08/23 11:12:16;;;;;;;1.85;0.90;;;30.60;36.00;;;;;;5019375;28;20026;-80
2022/08/23 11:14:45;;;;;;;2.13;0.90;;;30.30;35.90;;;;;;5021629;28;20583;-80
2022/08/23 11:17:25;;;;;;;4.30;1.00;;;30.30;36.10;;;;;;5022206;28;20087;-81
2022/08/23 11:19:57;;;;;;;4.47;1.00;;;29.50;36.00;;;;;;5018953;28;20727;-80
2022/08/23 11:22:26;;;;;;;2.35;0.85;;;30.10;36.50;;;;;;5022689;28;20128;-81
2022/08/23 11:24:55;;;;;;;2.67;1.00;;;29.60;36.50;;;;;;5020729;28;20029;-80
2022/08/23 11:27:27;;;;;;;10.57;1.30;;;29.70;36.80;;;;;;5020230;28;20508;-80
2022/08/23 11:29:53;;;;;;;3.10;1.00;;;30.00;35.40;;;;;;5019281;28;20172;-81
2022/08/23 11:32:32;;;;;;;2.28;1.10;;;30.00;37.30;;;;;;5018369;28;20112;-81
2022/08/23 11:35:31;;;;;;;3.42;0.80;;;30.70;36.60;;;;;;5017746;28;20401;-80
2022/08/23 11:38:00;;;;;;;3.63;1.10;;;30.50;35.90;;;;;;5022861;28;20401;-81
2022/08/23 11:40:56;;;;;;;2.15;0.90;;;30.90;36.60;;;;;;5026973;28;20037;-80
2022/08/23 11:44:09;;;;;;;1.65;0.80;;;31.50;35.70;;;;;;5001661;28;20523;-81
2022/08/23 11:46:54;;;;;;;2.83;0.68;;;31.20;35.80;;;;;;5027130;28;20045;-81
2022/08/23 11:49:49;;;;;;;2.45;0.90;;;31.50;35.00;;;;;;5026729;28;20584;-81
2022/08/23 11:52:51;;;;;;;2.80;0.90;;;31.30;34.30;;;;;;5020635;28;20120;-81
2022/08/23 11:55:42;;;;;;;1.27;0.70;;;32.00;34.10;;;;;;5007653;28;20055;-80
2022/08/23 11:58:40;;;;;;;2.15;0.70;;;31.00;34.40;;;;;;5022770;28;20030;-81
2022/08/23 12:01:09;;;;;;;2.05;0.90;;;31.40;34.30;;;;;;5024746;28;20266;-81
2022/08/23 12:03:51;;;;;;;3.72;1.15;;;32.10;33.50;;;;;;5023197;28;20374;-81
2022/08/23 12:06:23;;;;;;;2.15;0.88;;;31.60;33.80;;;;;;5024795;28;20025;-80
2022/08/23 12:08:59;;;;;;;3.83;0.95;;;31.70;33.90;;;;;;5024618;28;20485;-81
2022/08/23 12:11:54;;;;;;;2.55;0.70;;;31.90;31.90;;;;;;5026130;28;20033;-81
2022/08/23 12:14:41;;;;;;;2.45;0.80;;;32.20;33.40;;;;;;5021579;28;20102;-81
2022/08/23 12:17:24;;;;;;;1.92;0.73;;;32.80;31.80;;;;;;5026415;28;20079;-81
2022/08/23 12:19:57;;;;;;;3.17;0.95;;;32.40;33.10;;;;;;5019218;28;20040;-81
2022/08/23 12:22:52;;;;;;;3.72;0.90;;;32.10;31.70;;;;;;5022689;28;20506;-81
2022/08/23 12:25:21;;;;;;;2.60;0.90;;;31.70;31.40;;;;;;5023020;28;20030;-80
2022/08/23 12:27:58;;;;;;;2.78;0.90;;;32.10;32.40;;;;;;5024150;28;20090;-80
2022/08/23 12:30:32;;;;;;;1.55;0.70;;;32.50;32.50;;;;;;5029025;28;20030;-81
2022/08/23 12:33:04;;;;;;;2.38;0.80;;;32.10;33.30;;;;;;5029692;28;20147;-81
2022/08/23 12:35:59;;;;;;;1.80;0.90;;;33.20;31.20;;;;;;5030328;28;20029;-81
2022/08/23 12:38:45;;;;;;;1.45;0.70;;;33.30;32.00;;;;;;5023637;28;20038;-81
2022/08/23 12:41:34;;;;;;;2.50;0.80;;;33.30;31.10;;;;;;5024079;28;20032;-80
2022/08/23 12:44:06;;;;;;;2.40;0.80;;;32.90;32.00;;;;;;5018335;28;20040;-81
2022/08/23 12:46:40;;;;;;;2.28;0.75;;;33.00;30.40;;;;;;5021237;28;20187;-81
2022/08/23 12:49:20;;;;;;;2.95;0.85;;;34.00;29.40;;;;;;5022107;28;20744;-81
2022/08/23 12:51:51;;;;;;;2.22;0.80;;;34.40;29.50;;;;;;5033557;28;20026;-81
2022/08/23 12:54:19;;;;;;;1.92;0.60;;;33.30;29.20;;;;;;5031598;28;20037;-81
2022/08/23 12:56:48;;;;;;;2.90;0.95;;;33.90;31.70;;;;;;5031984;28;20120;-81
2022/08/23 12:59:34;;;;;;;4.68;0.98;;;33.30;29.20;;;;;;5029678;28;20108;-81
2022/08/23 13:02:04;;;;;;;1.05;0.60;;;33.90;31.30;;;;;;5029349;28;20515;-81
2022/08/23 13:04:32;;;;;;;2.25;0.73;;;33.10;29.10;;;;;;5033177;28;20083;-81
2022/08/23 13:07:03;;;;;;;2.55;0.80;;;33.50;30.40;;;;;;5026266;28;20033;-81
2022/08/23 13:09:33;;;;;;;3.50;0.80;;;33.90;30.00;;;;;;5024953;28;20029;-81
2022/08/23 13:12:00;;;;;;;2.30;0.60;;;33.70;29.50;;;;;;5030241;28;20048;-81
2022/08/23 13:14:31;;;;;;;2.53;0.77;;;34.10;30.20;;;;;;5028407;28;20485;-81
2022/08/23 13:17:11;;;;;;;2.10;0.70;;;34.70;30.50;;;;;;5031819;28;20121;-81
2022/08/23 13:19:37;;;;;;;1.83;0.65;;;34.70;28.80;;;;;;5020095;28;20041;-81
2022/08/23 13:22:18;;;;;;;0.88;0.70;;;34.50;29.00;;;;;;5030870;28;20087;-81
2022/08/23 13:25:02;;;;;;;1.50;0.68;;;34.80;28.50;;;;;;5025420;28;20028;-81
2022/08/23 13:27:33;;;;;;;2.38;0.88;;;35.50;27.00;;;;;;5026037;28;20076;-81